createdAt,value
2022-11-17T00:01:31.806Z,99198.43
2022-11-17T00:05:39.852Z,99196.05
2022-11-17T00:09:48.121Z,99199.45
2022-11-17T00:14:13.823Z,99204.95
2022-11-17T00:18:39.506Z,99203.88
2022-11-17T00:22:47.354Z,99205.66
2022-11-17T00:27:03.505Z,99195.52
2022-11-17T00:31:31.058Z,99194.44
2022-11-17T00:35:39.040Z,99199.15
2022-11-17T00:39:46.564Z,99201.77
2022-11-17T00:43:54.047Z,99206.33
2022-11-17T00:48:02.591Z,99208.27
2022-11-17T00:52:11.263Z,99207.38
2022-11-17T00:56:18.654Z,99202.41
2022-11-17T01:00:30.152Z,99200.73
2022-11-17T01:04:38.068Z,99192.96
2022-11-17T01:08:46.411Z,99196.63
2022-11-17T01:12:54.455Z,99197.17
2022-11-17T01:17:02.642Z,99194.48
2022-11-17T01:21:12.959Z,99192.58
2022-11-17T01:25:22.022Z,99186.77
2022-11-17T01:29:30.018Z,99192.77
2022-11-17T01:33:37.988Z,99193.61
2022-11-17T01:37:45.739Z,99190.40
2022-11-17T01:41:54.185Z,99185.92
2022-11-17T01:46:02.236Z,99181.45
2022-11-17T01:50:14.677Z,99179.34
2022-11-17T01:54:24.868Z,99175.33
2022-11-17T01:58:35.618Z,99171.40
2022-11-17T02:02:44.603Z,99165.13
2022-11-17T02:06:52.834Z,99165.30
2022-11-17T02:11:00.892Z,99170.16
2022-11-17T02:15:09.838Z,99174.98
2022-11-17T02:19:18.916Z,99171.98
2022-11-17T02:24:14.181Z,99166.45
2022-11-17T02:28:23.683Z,99161.42
2022-11-17T02:32:35.340Z,99159.19
2022-11-17T02:36:47.631Z,99157.69
2022-11-17T02:41:03.327Z,99150.24
2022-11-17T02:45:15.489Z,99152.15
2022-11-17T02:49:27.804Z,99151.42
2022-11-17T02:53:35.816Z,99150.91
2022-11-17T02:57:44.723Z,99149.42
2022-11-17T03:02:22.065Z,99151.61
2022-11-17T03:06:38.705Z,99152.91
2022-11-17T03:10:53.720Z,99155.90
2022-11-17T03:15:09.373Z,99161.25
2022-11-17T03:19:20.624Z,99161.64
2022-11-17T03:23:33.434Z,99163.06
2022-11-17T03:27:44.384Z,99163.14
2022-11-17T03:31:54.009Z,99166.15
2022-11-17T03:36:05.674Z,99173.25
2022-11-17T03:40:16.267Z,99174.54
2022-11-17T03:44:26.724Z,99171.96
2022-11-17T03:48:38.140Z,99170.41
2022-11-17T03:52:46.573Z,99170.74
2022-11-17T03:56:59.632Z,99171.30
2022-11-17T04:01:09.578Z,99167.63
2022-11-17T04:05:18.940Z,99164.63
2022-11-17T04:09:26.709Z,99160.54
2022-11-17T04:13:52.237Z,99161.73
2022-11-17T04:18:00.794Z,99161.85
2022-11-17T04:22:09.352Z,99163.09
2022-11-17T04:26:35.636Z,99162.23
2022-11-17T04:30:43.987Z,99154.49
2022-11-17T04:34:51.491Z,99155.09
2022-11-17T04:39:00.817Z,99154.80
2022-11-17T04:43:11.480Z,99152.98
2022-11-17T04:47:19.480Z,99152.09
2022-11-17T04:51:28.728Z,99151.40
2022-11-17T04:55:37.042Z,99153.08
2022-11-17T04:59:45.796Z,99155.60
2022-11-17T05:03:54.802Z,99153.69
2022-11-17T05:08:02.309Z,99157.48
2022-11-17T05:12:28.895Z,99160.30
2022-11-17T05:17:08.479Z,99161.36
2022-11-17T05:21:17.216Z,99171.39
2022-11-17T05:25:28.779Z,99177.70
2022-11-17T05:29:41.798Z,99176.90
2022-11-17T05:33:57.413Z,99179.87
2022-11-17T05:38:09.272Z,99172.52
2022-11-17T05:42:20.479Z,99165.73
2022-11-17T05:46:37.622Z,99160.71
2022-11-17T05:50:48.543Z,99157.65
2022-11-17T05:55:04.195Z,99152.27
2022-11-17T05:59:24.707Z,99154.40
2022-11-17T06:03:39.060Z,99154.81
2022-11-17T06:07:47.058Z,99153.53
2022-11-17T06:12:04.098Z,99159.08
2022-11-17T06:16:16.190Z,99155.61
2022-11-17T06:20:28.281Z,99160.13
2022-11-17T06:24:40.165Z,99167.17
2022-11-17T06:28:50.621Z,99170.86
2022-11-17T06:33:01.327Z,99179.04
2022-11-17T06:37:09.643Z,99181.79
2022-11-17T06:41:17.433Z,99180.07
2022-11-17T06:45:25.913Z,99184.55
2022-11-17T06:49:34.640Z,99185.75
2022-11-17T06:53:42.467Z,99181.99
2022-11-17T06:57:53.409Z,99186.08
2022-11-17T07:02:04.039Z,99183.77
2022-11-17T07:06:12.361Z,99185.45
2022-11-17T07:10:20.797Z,99185.16
2022-11-17T07:14:28.267Z,99188.69
2022-11-17T07:18:36.635Z,99189.66
2022-11-17T07:22:45.152Z,99189.33
2022-11-17T07:26:52.456Z,99188.84
2022-11-17T07:31:04.726Z,99190.68
2022-11-17T07:35:13.055Z,99185.22
2022-11-17T07:39:22.109Z,99180.03
2022-11-17T07:43:30.043Z,99179.66
2022-11-17T07:47:39.383Z,99178.15
2022-11-17T07:51:51.370Z,99180.27
2022-11-17T07:56:06.019Z,99182.20
2022-11-17T08:00:15.847Z,99179.87
2022-11-17T08:04:24.054Z,99176.91
2022-11-17T08:08:32.231Z,99176.60
2022-11-17T08:12:40.954Z,99169.89
2022-11-17T08:16:48.295Z,99172.88
2022-11-17T08:21:03.917Z,99172.08
2022-11-17T08:25:15.313Z,99174.35
2022-11-17T08:29:24.471Z,99174.30
2022-11-17T08:33:33.356Z,99173.40
2022-11-17T08:37:44.825Z,99174.18
2022-11-17T08:41:54.170Z,99178.70
2022-11-17T08:46:02.502Z,99186.09
2022-11-17T08:50:11.929Z,99188.69
2022-11-17T08:54:19.595Z,99181.83
2022-11-17T08:58:27.213Z,99181.18
2022-11-17T09:02:35.047Z,99183.81
2022-11-17T09:06:42.245Z,99179.03
2022-11-17T09:10:51.929Z,99178.97
2022-11-17T09:14:59.258Z,99185.70
2022-11-17T09:19:07.007Z,99182.39
2022-11-17T09:23:15.093Z,99184.97
2022-11-17T09:27:23.312Z,99178.84
2022-11-17T09:31:30.899Z,99175.67
2022-11-17T09:35:39.580Z,99179.10
2022-11-17T09:39:46.992Z,99188.55
2022-11-17T09:44:00.871Z,99196.86
2022-11-17T09:48:39.352Z,99189.40
2022-11-17T09:52:49.117Z,99185.21
2022-11-17T09:56:57.087Z,99186.00
2022-11-17T10:01:04.962Z,99188.83
2022-11-17T10:05:18.167Z,99185.16
2022-11-17T10:09:35.645Z,99185.55
2022-11-17T10:13:43.226Z,99185.02
2022-11-17T10:17:51.086Z,99180.05
2022-11-17T10:22:08.371Z,99179.11
2022-11-17T10:26:17.177Z,99178.44
2022-11-17T10:30:26.605Z,99174.36
2022-11-17T10:34:41.044Z,99179.48
2022-11-17T10:38:52.018Z,99184.76
2022-11-17T10:43:24.333Z,99180.65
2022-11-17T10:47:35.232Z,99176.65
2022-11-17T10:51:42.990Z,99177.67
2022-11-17T10:55:57.226Z,99171.89
2022-11-17T11:00:05.784Z,99168.45
2022-11-17T11:04:30.793Z,99167.14
2022-11-17T11:08:48.769Z,99159.36
2022-11-17T11:13:21.475Z,99159.61
2022-11-17T11:17:49.145Z,99158.69
2022-11-17T11:22:22.771Z,99160.04
2022-11-17T11:26:46.211Z,99159.48
2022-11-17T11:31:02.343Z,99161.09
2022-11-17T11:35:37.652Z,99166.85
2022-11-17T11:39:52.111Z,99173.41
2022-11-17T11:44:26.312Z,99165.99
2022-11-17T11:48:35.325Z,99164.64
2022-11-17T11:52:47.474Z,99165.07
2022-11-17T11:56:55.286Z,99173.88
2022-11-17T12:01:07.687Z,99168.61
2022-11-17T12:05:23.595Z,99176.67
2022-11-17T12:10:01.558Z,99185.02
2022-11-17T12:14:12.871Z,99189.05
2022-11-17T12:18:33.648Z,99193.38
2022-11-17T12:23:02.295Z,99195.52
2022-11-17T12:27:34.318Z,99184.48
2022-11-17T12:31:48.900Z,99180.81
2022-11-17T12:36:30.196Z,99183.90
2022-11-17T12:40:49.585Z,99188.11
2022-11-17T12:45:05.613Z,99189.85
2022-11-17T12:49:29.748Z,99184.40
2022-11-17T12:53:57.966Z,99182.91
2022-11-17T12:58:16.083Z,99180.48
2022-11-17T13:02:38.301Z,99179.25
2022-11-17T13:07:07.646Z,99169.05
2022-11-17T13:11:18.564Z,99162.79
2022-11-17T13:15:26.561Z,99153.41
2022-11-17T13:19:42.553Z,99143.88
2022-11-17T13:23:50.233Z,99141.66
2022-11-17T13:28:04.226Z,99136.55
2022-11-17T13:32:18.723Z,99133.89
2022-11-17T13:36:27.310Z,99127.67
2022-11-17T13:40:35.880Z,99132.13
2022-11-17T13:44:43.390Z,99132.69
2022-11-17T13:48:52.409Z,99135.13
2022-11-17T13:53:02.299Z,99127.02
2022-11-17T13:57:16.823Z,99122.54
2022-11-17T14:01:29.794Z,99122.83
2022-11-17T14:05:37.867Z,99120.09
2022-11-17T14:09:45.923Z,99116.61
2022-11-17T14:13:58.822Z,99117.21
2022-11-17T14:18:19.771Z,99121.91
2022-11-17T14:22:31.833Z,99120.26
2022-11-17T14:26:45.075Z,99118.19
2022-11-17T14:30:53.705Z,99124.71
2022-11-17T14:35:01.812Z,99133.63
2022-11-17T14:39:16.896Z,99137.27
2022-11-17T14:43:25.293Z,99139.80
2022-11-17T14:47:33.349Z,99138.66
2022-11-17T14:51:41.008Z,99139.55
2022-11-17T14:55:48.962Z,99141.25
2022-11-17T14:59:56.992Z,99139.77
2022-11-17T15:04:27.205Z,99137.79
2022-11-17T15:08:33.501Z,99134.90
2022-11-17T15:12:40.861Z,99136.11
2022-11-17T15:16:48.664Z,99132.00
2022-11-17T15:21:04.387Z,99130.40
2022-11-17T15:25:13.289Z,99128.82
2022-11-17T15:29:21.529Z,99130.55
2022-11-17T15:33:29.410Z,99138.14
2022-11-17T15:37:37.283Z,99132.79
2022-11-17T15:41:45.341Z,99133.79
2022-11-17T15:45:52.939Z,99135.02
2022-11-17T15:50:00.843Z,99128.76
2022-11-17T15:54:08.521Z,99123.60
2022-11-17T15:58:16.593Z,99115.45
2022-11-17T16:02:24.540Z,99121.18
2022-11-17T16:06:33.474Z,99124.47
2022-11-17T16:10:42.243Z,99121.52
2022-11-17T16:14:49.644Z,99120.98
2022-11-17T16:18:57.936Z,99119.63
2022-11-17T16:23:05.247Z,99118.95
2022-11-17T16:27:13.707Z,99111.36
2022-11-17T16:31:23.694Z,99113.64
2022-11-17T16:35:31.206Z,99122.84
2022-11-17T16:39:39.875Z,99126.52
2022-11-17T16:43:50.509Z,99117.38
2022-11-17T16:47:58.220Z,99119.66
2022-11-17T16:52:06.159Z,99115.58
2022-11-17T16:56:14.774Z,99100.27
2022-11-17T17:00:23.487Z,99111.24
2022-11-17T17:04:33.818Z,99121.27
2022-11-17T17:08:42.206Z,99124.70
2022-11-17T17:12:51.099Z,99132.38
2022-11-17T17:16:58.598Z,99138.95
2022-11-17T17:21:07.914Z,99140.39
2022-11-17T17:25:16.367Z,99149.49
2022-11-17T17:29:24.531Z,99148.94
2022-11-17T17:33:35.572Z,99149.10
2022-11-17T17:37:43.317Z,99146.45
2022-11-17T17:41:54.840Z,99145.05
2022-11-17T17:46:04.124Z,99139.06
2022-11-17T17:50:15.192Z,99135.54
2022-11-17T17:54:25.365Z,99133.13
2022-11-17T17:58:40.302Z,99136.48
2022-11-17T18:02:50.136Z,99132.75
2022-11-17T18:06:59.498Z,99116.13
2022-11-17T18:11:09.681Z,99114.35
2022-11-17T18:15:18.544Z,99115.79
2022-11-17T18:19:31.529Z,99123.11
2022-11-17T18:23:41.373Z,99122.59
2022-11-17T18:27:49.151Z,99116.96
2022-11-17T18:31:56.848Z,99115.17
2022-11-17T18:36:11.849Z,99115.41
2022-11-17T18:40:20.007Z,99106.64
2022-11-17T18:44:30.802Z,99112.61
2022-11-17T18:48:41.148Z,99117.41
2022-11-17T18:52:50.399Z,99113.20
2022-11-17T18:57:01.744Z,99120.20
2022-11-17T19:01:11.456Z,99122.86
2022-11-17T19:05:19.302Z,99120.27
2022-11-17T19:09:27.187Z,99118.98
2022-11-17T19:13:37.500Z,99111.33
2022-11-17T19:17:47.063Z,99107.27
2022-11-17T19:21:55.296Z,99110.23
2022-11-17T19:26:05.895Z,99114.01
2022-11-17T19:30:15.755Z,99109.90
2022-11-17T19:34:23.278Z,99107.34
2022-11-17T19:38:34.637Z,99102.67
2022-11-17T19:42:43.003Z,99101.89
2022-11-17T19:46:50.988Z,99110.80
2022-11-17T19:50:59.046Z,99113.38
2022-11-17T19:55:07.363Z,99117.15
2022-11-17T19:59:16.689Z,99117.45
2022-11-17T20:03:24.969Z,99120.42
2022-11-17T20:07:34.270Z,99115.64
2022-11-17T20:11:42.585Z,99109.73
2022-11-17T20:15:51.091Z,99105.30
2022-11-17T20:19:58.671Z,99106.83
2022-11-17T20:24:06.032Z,99105.94
2022-11-17T20:28:13.757Z,99110.23
2022-11-17T20:32:21.174Z,99101.31
2022-11-17T20:36:29.192Z,99105.05
2022-11-17T20:40:37.084Z,99097.25
2022-11-17T20:44:45.537Z,99093.48
2022-11-17T20:48:53.977Z,99093.41
2022-11-17T20:53:01.740Z,99096.63
2022-11-17T20:57:09.523Z,99095.13
2022-11-17T21:01:18.887Z,99087.54
2022-11-17T21:05:26.455Z,99072.51
2022-11-17T21:09:36.022Z,99068.40
2022-11-17T21:13:44.508Z,99074.68
2022-11-17T21:18:10.131Z,99082.88
2022-11-17T21:22:17.867Z,99085.33
2022-11-17T21:26:25.734Z,99084.79
2022-11-17T21:30:34.377Z,99078.95
2022-11-17T21:34:45.637Z,99070.42
2022-11-17T21:38:57.272Z,99068.62
2022-11-17T21:43:04.913Z,99063.29
2022-11-17T21:47:12.606Z,99055.07
2022-11-17T21:51:22.360Z,99048.20
2022-11-17T21:55:30.619Z,99036.17
2022-11-17T21:59:38.286Z,99033.43
2022-11-17T22:03:46.560Z,99030.20
2022-11-17T22:07:54.861Z,99039.25
2022-11-17T22:12:05.450Z,99043.89
2022-11-17T22:16:14.796Z,99049.23
2022-11-17T22:20:22.672Z,99042.55
2022-11-17T22:24:30.396Z,99043.93
2022-11-17T22:28:38.157Z,99040.38
2022-11-17T22:32:46.083Z,99051.23
2022-11-17T22:36:53.728Z,99057.21
2022-11-17T22:41:03.832Z,99054.88
2022-11-17T22:45:13.333Z,99050.62
2022-11-17T22:49:21.242Z,99048.94
2022-11-17T22:53:29.684Z,99048.98
2022-11-17T22:57:37.476Z,99054.86
2022-11-17T23:01:45.459Z,99059.28
2022-11-17T23:05:53.118Z,99060.55
2022-11-17T23:10:01.275Z,99064.29
2022-11-17T23:14:12.593Z,99070.15
2022-11-17T23:18:20.591Z,99069.58
2022-11-17T23:22:31.072Z,99067.46
2022-11-17T23:26:38.249Z,99065.83
2022-11-17T23:30:46.560Z,99059.70
2022-11-17T23:34:53.973Z,99060.18
2022-11-17T23:39:02.421Z,99057.43
2022-11-17T23:43:11.346Z,99054.73
2022-11-17T23:47:18.984Z,99050.45
2022-11-17T23:51:29.857Z,99048.58
2022-11-17T23:55:37.809Z,99046.01
2022-11-17T23:59:45.186Z,99048.52
